Time;durP1;ratioP1;P1;durP2;ratioP2;P2;SDS_P1;SDS_P2;PMS_P1;PMS_P2;Temp;Humidity;BMP_temperature;BMP_pressure;BME280_temperature;BME280_humidity;BME280_pressure;Samples;Min_cycle;Max_cycle;Signal;HPM_P1;HPM_P2
2021/04/24 00:00:18;;;;;;;6.00;3.77;;;;;;;-0.39;85.19;93484.26;1785565;78;21151;-75
2021/04/24 00:02:46;;;;;;;4.37;3.45;;;;;;;-0.34;85.17;93484.86;1823851;78;21128;-76
2021/04/24 00:05:24;;;;;;;6.12;3.37;;;;;;;-0.28;84.69;93482.20;1854922;77;21159;-74
2021/04/24 00:07:56;;;;;;;5.70;3.87;;;;;;;-0.27;84.27;93481.66;1790848;77;21381;-75
2021/04/24 00:10:23;;;;;;;4.60;2.92;;;;;;;-0.24;83.83;93485.02;1806197;78;21144;-76
2021/04/24 00:12:50;;;;;;;4.92;3.58;;;;;;;-0.20;83.40;93482.48;1834773;77;21041;-76
2021/04/24 00:15:18;;;;;;;6.78;4.08;;;;;;;-0.20;83.10;93486.48;1852113;77;21836;-76
2021/04/24 00:17:45;;;;;;;8.40;3.90;;;;;;;-0.21;83.00;93487.05;1852205;77;21621;-77
2021/04/24 00:20:17;;;;;;;4.30;3.08;;;;;;;-0.21;82.69;93484.37;1780825;77;21464;-77
2021/04/24 00:22:45;;;;;;;4.08;2.55;;;;;;;-0.22;82.63;93485.48;1777735;80;21567;-76
2021/04/24 00:25:12;;;;;;;3.40;2.75;;;;;;;-0.29;82.91;93474.53;1777592;80;21107;-77
2021/04/24 00:27:39;;;;;;;3.65;2.83;;;;;;;-0.41;83.21;93477.91;1790868;78;21364;-76
2021/04/24 00:30:10;;;;;;;4.62;2.85;;;;;;;-0.54;83.51;93485.60;1820244;78;21107;-76
2021/04/24 00:32:39;;;;;;;2.58;2.37;;;;;;;-0.67;83.81;93476.73;1778941;80;21105;-74
2021/04/24 00:35:09;;;;;;;9.23;3.52;;;;;;;-0.75;84.37;93473.56;1819056;78;21103;-76
2021/04/24 00:37:37;;;;;;;6.65;3.08;;;;;;;-0.83;84.69;93475.70;1842213;77;21092;-77
2021/04/24 00:40:07;;;;;;;4.22;2.55;;;;;;;-0.86;84.98;93479.81;1852022;77;21198;-76
2021/04/24 00:42:35;;;;;;;3.35;2.60;;;;;;;-0.83;84.82;93481.84;1852014;77;21144;-76
2021/04/24 00:45:05;;;;;;;3.37;3.05;;;;;;;-0.81;84.68;93478.28;1852169;77;21060;-76
2021/04/24 00:47:33;;;;;;;6.93;3.67;;;;;;;-0.82;84.49;93479.40;1851843;77;21056;-77
2021/04/24 00:50:00;;;;;;;4.15;3.08;;;;;;;-0.85;84.43;93479.26;1852019;77;21569;-75
2021/04/24 00:52:29;;;;;;;5.33;3.45;;;;;;;-0.87;84.56;93485.45;1851976;77;21469;-74
2021/04/24 00:54:56;;;;;;;4.17;3.15;;;;;;;-0.93;84.71;93474.19;1825585;77;21132;-75
2021/04/24 00:57:24;;;;;;;4.65;3.00;;;;;;;-0.98;84.85;93478.36;1782959;78;21159;-76
2021/04/24 00:59:51;;;;;;;6.10;3.80;;;;;;;-0.99;85.05;93482.14;1823030;78;21017;-75
2021/04/24 01:02:19;;;;;;;4.83;3.08;;;;;;;-1.01;85.04;93483.02;1757244;79;21092;-76
2021/04/24 01:04:47;;;;;;;4.87;3.27;;;;;;;-1.05;84.98;93486.89;1777724;80;21426;-76
2021/04/24 01:07:16;;;;;;;5.35;3.50;;;;;;;-1.10;85.18;93483.59;1798116;78;21115;-74
2021/04/24 01:09:46;;;;;;;3.52;2.85;;;;;;;-1.14;85.31;93489.34;1828345;77;21171;-77
2021/04/24 01:12:14;;;;;;;5.72;3.40;;;;;;;-1.23;85.68;93490.16;1849821;77;21178;-75
2021/04/24 01:14:46;;;;;;;5.45;3.12;;;;;;;-1.30;86.07;93487.75;1775701;79;21139;-75
2021/04/24 01:17:16;;;;;;;3.92;3.25;;;;;;;-1.27;86.52;93491.13;1816311;78;21404;-76
2021/04/24 01:19:43;;;;;;;6.30;3.55;;;;;;;-1.23;86.51;93486.71;1840072;77;21206;-74
2021/04/24 01:22:13;;;;;;;3.97;3.40;;;;;;;-1.22;86.16;93492.27;1850355;77;21645;-75
2021/04/24 01:24:42;;;;;;;4.83;2.67;;;;;;;-1.27;85.99;93485.23;1850043;77;21267;-73
2021/04/24 01:27:09;;;;;;;3.45;2.85;;;;;;;-1.33;85.90;93487.83;1850742;77;21139;-75
2021/04/24 01:29:41;;;;;;;6.67;3.42;;;;;;;-1.39;86.11;93485.12;1778692;76;21199;-73
2021/04/24 01:32:10;;;;;;;4.87;3.70;;;;;;;-1.41;86.35;93480.64;1779573;80;21156;-74
2021/04/24 01:34:38;;;;;;;4.53;3.20;;;;;;;-1.41;86.62;93482.53;1776109;80;21175;-75
2021/04/24 01:37:05;;;;;;;5.72;3.08;;;;;;;-1.37;86.61;93485.56;1776999;80;21096;-74
2021/04/24 01:39:32;;;;;;;5.03;3.73;;;;;;;-1.34;86.60;93482.27;1780092;78;21131;-75
2021/04/24 01:42:00;;;;;;;10.55;4.22;;;;;;;-1.31;86.44;93485.64;1821703;78;21586;-74
2021/04/24 01:44:29;;;;;;;4.87;3.67;;;;;;;-1.29;86.40;93487.97;1781813;78;21163;-73
2021/04/24 01:46:56;;;;;;;5.87;2.98;;;;;;;-1.27;86.17;93487.90;1805354;78;21181;-76
2021/04/24 01:49:26;;;;;;;6.00;3.27;;;;;;;-1.26;85.99;93491.34;1802010;78;21155;-76
2021/04/24 01:51:53;;;;;;;6.27;3.40;;;;;;;-1.34;85.80;93486.27;1785198;78;21158;-73
2021/04/24 01:54:22;;;;;;;5.63;3.77;;;;;;;-1.44;85.95;93491.94;1822337;78;21355;-75
2021/04/24 01:56:53;;;;;;;5.93;3.53;;;;;;;-1.53;86.30;93496.52;1851962;77;21123;-74
2021/04/24 01:59:27;;;;;;;10.83;4.20;;;;;;;-1.56;86.66;93498.48;1794454;77;21107;-73
2021/04/24 02:01:57;;;;;;;4.90;3.43;;;;;;;-1.53;86.65;93497.85;1798064;77;21127;-75
2021/04/24 02:04:26;;;;;;;5.40;4.23;;;;;;;-1.51;86.69;93490.30;1823249;77;21112;-76
2021/04/24 02:06:53;;;;;;;5.43;3.53;;;;;;;-1.50;86.61;93494.56;1785059;78;21363;-77
2021/04/24 02:09:23;;;;;;;6.20;3.53;;;;;;;-1.49;86.81;93490.78;1822830;78;21056;-76
2021/04/24 02:12:04;;;;;;;8.03;3.87;;;;;;;-1.47;86.72;93484.56;1851007;77;21618;-76
2021/04/24 02:14:50;;;;;;;5.20;3.33;;;;;;;-1.48;86.80;93493.67;1789340;77;21116;-75
2021/04/24 02:17:22;;;;;;;5.03;3.63;;;;;;;-1.43;86.87;93491.37;1810684;78;21546;-74
2021/04/24 02:19:51;;;;;;;6.42;3.52;;;;;;;-1.40;86.72;93494.20;1838209;77;21633;-75
2021/04/24 02:22:19;;;;;;;3.70;3.10;;;;;;;-1.35;86.75;93491.94;1851937;77;21048;-74
2021/04/24 02:24:57;;;;;;;4.47;3.37;;;;;;;-1.30;86.79;93490.42;1851943;77;21099;-76
2021/04/24 02:27:26;;;;;;;6.75;3.62;;;;;;;-1.28;86.63;93496.20;1853056;77;21088;-72
2021/04/24 02:29:55;;;;;;;8.87;5.67;;;;;;;-1.26;86.64;93497.46;1830371;77;21123;-77
2021/04/24 02:32:27;;;;;;;10.97;4.90;;;;;;;-1.23;86.53;93496.83;1796919;77;21362;-75
2021/04/24 02:34:54;;;;;;;4.90;4.20;;;;;;;-1.17;86.38;93497.98;1801791;78;21076;-76
2021/04/24 02:37:22;;;;;;;5.90;4.00;;;;;;;-1.15;86.10;93497.91;1831866;77;21069;-74
2021/04/24 02:39:50;;;;;;;6.33;4.40;;;;;;;-1.16;85.97;93493.67;1846668;77;21040;-78
2021/04/24 02:42:24;;;;;;;3.83;3.40;;;;;;;-1.17;85.84;93488.64;1777807;80;21045;-76
2021/04/24 02:44:53;;;;;;;3.57;3.20;;;;;;;-1.16;85.81;93490.23;1777725;80;21379;-76
2021/04/24 02:47:24;;;;;;;5.13;3.60;;;;;;;-1.17;85.79;93493.42;1809084;78;21052;-77
2021/04/24 02:49:51;;;;;;;6.40;3.60;;;;;;;-1.19;85.73;93487.64;1801151;78;21092;-77
2021/04/24 02:52:19;;;;;;;7.10;4.40;;;;;;;-1.17;85.88;93488.64;1777609;80;21018;-75
2021/04/24 02:54:48;;;;;;;5.17;3.47;;;;;;;-1.17;85.78;93485.97;1779442;78;21124;-74
2021/04/24 02:57:17;;;;;;;6.73;3.80;;;;;;;-1.14;85.84;93485.34;1825541;78;21323;-72
2021/04/24 02:59:44;;;;;;;6.53;3.95;;;;;;;-1.14;85.63;93486.67;1849443;77;21159;-77
2021/04/24 03:02:12;;;;;;;6.23;4.43;;;;;;;-1.17;85.53;93493.42;1807894;77;21041;-77
2021/04/24 03:04:39;;;;;;;5.63;3.90;;;;;;;-1.18;85.80;93495.09;1794336;78;21064;-77
2021/04/24 03:07:07;;;;;;;4.77;3.60;;;;;;;-1.17;86.00;93494.75;1827047;77;21128;-75
2021/04/24 03:09:34;;;;;;;9.70;4.50;;;;;;;-1.16;85.77;93492.90;1852408;77;22383;-77
2021/04/24 03:12:03;;;;;;;5.03;4.13;;;;;;;-1.23;85.69;93497.38;1783184;77;21063;-77
2021/04/24 03:14:30;;;;;;;8.80;3.92;;;;;;;-1.23;86.01;93494.16;1809630;78;21503;-77
2021/04/24 03:17:01;;;;;;;4.17;3.72;;;;;;;-1.18;85.89;93504.42;1836740;77;21116;-77
2021/04/24 03:19:28;;;;;;;5.17;3.40;;;;;;;-1.17;85.89;93497.98;1852413;77;21032;-76
2021/04/24 03:21:55;;;;;;;6.53;3.13;;;;;;;-1.14;85.86;93496.02;1852307;77;21804;-76
2021/04/24 03:24:23;;;;;;;7.30;5.03;;;;;;;-1.17;85.79;93501.43;1852821;77;21463;-77
2021/04/24 03:26:51;;;;;;;5.17;4.42;;;;;;;-1.18;85.87;93504.42;1794366;77;21025;-72
2021/04/24 03:29:20;;;;;;;5.95;3.40;;;;;;;-1.17;86.11;93511.32;1805212;78;21056;-77
2021/04/24 03:31:48;;;;;;;6.23;4.17;;;;;;;-1.14;86.08;93508.02;1806336;78;21463;-76
2021/04/24 03:34:16;;;;;;;5.20;3.27;;;;;;;-1.13;86.00;93513.58;1784093;78;21784;-77
2021/04/24 03:36:43;;;;;;;8.53;4.27;;;;;;;-1.10;86.07;93515.63;1823209;78;21206;-77
2021/04/24 03:39:10;;;;;;;8.10;5.80;;;;;;;-1.06;86.11;93522.66;1780975;78;21069;-78
2021/04/24 03:41:38;;;;;;;9.45;5.62;;;;;;;-1.00;86.02;93524.62;1803731;77;21507;-76
2021/04/24 03:44:05;;;;;;;12.47;7.40;;;;;;;-1.00;85.95;93516.61;1817681;77;21136;-75
2021/04/24 03:46:33;;;;;;;7.03;4.40;;;;;;;-0.99;85.97;93522.17;1788397;78;21368;-76
2021/04/24 03:49:01;;;;;;;7.85;4.17;;;;;;;-0.96;85.87;93518.88;1823205;77;21049;-75
2021/04/24 03:51:28;;;;;;;5.13;4.23;;;;;;;-0.93;85.72;93517.45;1852047;77;21559;-75
2021/04/24 03:53:55;;;;;;;8.87;5.77;;;;;;;-0.91;85.66;93523.24;1853490;77;21162;-72
2021/04/24 03:56:23;;;;;;;8.35;5.65;;;;;;;-0.89;85.77;93517.83;1855747;77;21037;-76
2021/04/24 03:58:50;;;;;;;7.47;5.23;;;;;;;-0.86;85.72;93516.41;1851888;77;21146;-76
2021/04/24 04:01:17;;;;;;;5.25;4.17;;;;;;;-0.85;85.07;93520.08;1845478;77;21585;-77
2021/04/24 04:03:44;;;;;;;7.25;3.92;;;;;;;-0.80;84.89;93526.57;1777629;80;21136;-77
2021/04/24 04:06:12;;;;;;;4.72;3.12;;;;;;;-0.78;84.87;93524.94;1817585;78;21040;-75
2021/04/24 04:08:40;;;;;;;5.03;3.62;;;;;;;-0.76;85.03;93532.05;1842157;77;21064;-77
2021/04/24 04:11:08;;;;;;;11.03;5.28;;;;;;;-0.74;84.77;93530.64;1851966;77;21255;-76
2021/04/24 04:13:36;;;;;;;10.72;6.08;;;;;;;-0.68;84.19;93529.11;1852014;77;21053;-77
2021/04/24 04:16:04;;;;;;;7.50;4.97;;;;;;;-0.55;84.11;93530.23;1852189;77;21135;-76
2021/04/24 04:18:35;;;;;;;10.28;4.65;;;;;;;-0.44;83.51;93534.66;1779100;77;21160;-76
2021/04/24 04:21:00;;;;;;;7.05;3.98;;;;;;;-0.35;83.64;93534.05;1812100;78;21033;-77
2021/04/24 04:23:28;;;;;;;8.23;4.95;;;;;;;-0.23;83.46;93537.91;1801147;78;21219;-72
2021/04/24 04:25:55;;;;;;;7.87;5.37;;;;;;;-0.12;83.65;93540.43;1793151;78;21132;-76
2021/04/24 04:28:23;;;;;;;9.40;6.42;;;;;;;0.13;83.91;93541.38;1789319;77;21044;-78
2021/04/24 04:30:52;;;;;;;9.88;5.92;;;;;;;0.51;83.34;93539.09;1852264;77;21030;-76
2021/04/24 04:33:19;;;;;;;12.58;6.33;;;;;;;0.88;81.92;93546.69;1787638;77;21048;-74
2021/04/24 04:35:47;;;;;;;10.60;5.78;;;;;;;1.18;81.07;93542.73;1806369;78;21558;-77
2021/04/24 04:38:14;;;;;;;13.30;8.55;;;;;;;1.47;80.21;93546.35;1804520;78;21182;-75
2021/04/24 04:40:43;;;;;;;13.15;8.13;;;;;;;1.86;79.62;93545.44;1785529;78;21053;-76
2021/04/24 04:43:10;;;;;;;16.25;9.65;;;;;;;2.29;77.56;93542.67;1823057;78;21048;-76
2021/04/24 04:45:38;;;;;;;13.22;8.45;;;;;;;2.94;76.39;93543.91;1851085;77;21231;-77
2021/04/24 04:48:06;;;;;;;12.25;7.35;;;;;;;3.74;75.08;93546.86;1852005;77;21930;-77
2021/04/24 04:50:36;;;;;;;9.63;6.03;;;;;;;4.62;71.93;93545.89;1852191;77;21159;-76
2021/04/24 04:53:03;;;;;;;9.73;5.87;;;;;;;5.51;69.45;93551.61;1854908;77;21068;-72
2021/04/24 04:55:31;;;;;;;8.48;5.33;;;;;;;6.43;65.33;93548.02;1847843;77;21035;-76
2021/04/24 04:57:58;;;;;;;6.12;4.72;;;;;;;6.97;61.39;93547.55;1777948;80;21467;-76
2021/04/24 05:00:26;;;;;;;9.93;5.78;;;;;;;7.17;59.49;93543.33;1816288;78;21795;-76
2021/04/24 05:02:53;;;;;;;7.78;5.50;;;;;;;7.25;56.24;93540.31;1841170;77;21175;-77
2021/04/24 05:05:21;;;;;;;8.15;5.42;;;;;;;7.29;56.03;93548.47;1852073;77;21049;-76
2021/04/24 05:07:49;;;;;;;6.08;4.97;;;;;;;7.29;55.33;93541.12;1852045;77;21670;-77
2021/04/24 05:10:19;;;;;;;9.13;5.15;;;;;;;7.16;53.06;93542.55;1851613;77;21048;-76
2021/04/24 05:12:47;;;;;;;5.40;4.45;;;;;;;7.06;55.22;93531.03;1778955;77;22029;-76
2021/04/24 05:15:15;;;;;;;6.45;4.65;;;;;;;7.11;54.37;93543.44;1811391;78;21115;-77
2021/04/24 05:17:44;;;;;;;6.00;4.75;;;;;;;7.04;53.73;93548.99;1838589;77;21033;-76
2021/04/24 05:20:15;;;;;;;6.55;4.62;;;;;;;7.06;54.15;93553.44;1853157;77;21040;-74
2021/04/24 05:22:46;;;;;;;5.37;4.00;;;;;;;7.35;53.89;93549.70;1855019;77;21048;-77
2021/04/24 05:25:16;;;;;;;8.28;4.28;;;;;;;7.80;51.99;93553.22;1851674;77;21611;-76
2021/04/24 05:27:46;;;;;;;5.83;3.80;;;;;;;8.13;50.11;93549.62;1851133;77;21772;-75
2021/04/24 05:30:16;;;;;;;6.47;4.87;;;;;;;8.47;50.96;93548.91;1799796;77;21176;-75
2021/04/24 05:32:43;;;;;;;7.45;4.72;;;;;;;9.05;49.28;93547.83;1800502;78;21167;-77
2021/04/24 05:35:14;;;;;;;7.28;4.70;;;;;;;9.49;48.49;93557.08;1810907;78;21040;-77
2021/04/24 05:37:41;;;;;;;7.37;5.12;;;;;;;9.89;45.14;93555.18;1776658;80;22247;-77
2021/04/24 05:40:09;;;;;;;6.50;3.80;;;;;;;10.16;45.41;93553.66;1777447;80;21196;-77
2021/04/24 05:42:36;;;;;;;6.10;3.95;;;;;;;10.34;45.00;93553.68;1814996;78;21092;-78
2021/04/24 05:45:10;;;;;;;4.87;3.58;;;;;;;10.66;43.90;93552.84;1793965;78;21167;-77
2021/04/24 05:47:43;;;;;;;5.10;3.83;;;;;;;10.93;42.18;93550.44;1776710;80;21595;-76
2021/04/24 05:50:13;;;;;;;5.87;4.10;;;;;;;11.08;41.03;93547.08;1789889;78;21446;-73
2021/04/24 05:52:40;;;;;;;4.72;3.30;;;;;;;11.11;41.07;93546.30;1823674;77;21470;-75
2021/04/24 05:55:09;;;;;;;3.95;2.95;;;;;;;11.30;40.18;93552.63;1851384;77;21191;-74
2021/04/24 05:57:37;;;;;;;4.15;3.17;;;;;;;11.43;38.85;93552.94;1850564;77;21677;-75
2021/04/24 06:00:07;;;;;;;2.98;2.67;;;;;;;11.34;38.01;93546.58;1851757;77;21174;-75
2021/04/24 06:02:35;;;;;;;4.22;3.55;;;;;;;11.12;35.76;93551.33;1851150;77;22485;-73
2021/04/24 06:05:08;;;;;;;5.30;3.40;;;;;;;10.99;37.94;93560.34;1841542;77;21358;-73
2021/04/24 06:07:38;;;;;;;3.25;2.90;;;;;;;11.14;37.72;93561.84;1777452;80;21092;-74
2021/04/24 06:10:09;;;;;;;4.25;2.77;;;;;;;11.33;36.40;93548.34;1821755;78;21151;-75
2021/04/24 06:12:36;;;;;;;4.00;3.02;;;;;;;11.47;36.57;93542.84;1845190;77;21182;-74
2021/04/24 06:15:07;;;;;;;5.83;3.22;;;;;;;11.57;36.41;93544.70;1851919;77;21183;-75
2021/04/24 06:17:34;;;;;;;3.60;2.70;;;;;;;11.73;36.48;93542.85;1852983;77;21135;-72
2021/04/24 06:20:03;;;;;;;3.42;2.33;;;;;;;12.00;36.59;93549.12;1854343;77;21025;-76
2021/04/24 06:22:30;;;;;;;4.17;2.80;;;;;;;12.39;35.15;93544.14;1852133;77;21037;-74
2021/04/24 06:24:58;;;;;;;10.85;4.87;;;;;;;12.67;34.61;93541.55;1785820;77;21101;-76
2021/04/24 06:27:26;;;;;;;3.10;2.55;;;;;;;12.74;35.08;93540.88;1807642;78;21433;-74
2021/04/24 06:29:54;;;;;;;3.20;2.58;;;;;;;12.82;33.93;93543.72;1834506;77;21222;-73
2021/04/24 06:32:22;;;;;;;2.90;2.22;;;;;;;12.70;33.11;93527.87;1851610;77;21103;-74
2021/04/24 06:34:49;;;;;;;3.20;2.42;;;;;;;12.23;32.94;93543.90;1852117;77;21099;-73
2021/04/24 06:37:17;;;;;;;5.42;3.65;;;;;;;11.56;33.08;93540.44;1852118;77;21610;-74
2021/04/24 06:39:44;;;;;;;5.35;3.17;;;;;;;10.94;33.55;93539.73;1851012;77;21597;-73
2021/04/24 06:42:15;;;;;;;6.47;3.30;;;;;;;10.27;36.09;93544.17;1810813;77;21140;-72
2021/04/24 06:44:44;;;;;;;5.62;2.40;;;;;;;9.85;37.59;93534.81;1792374;78;21112;-74
2021/04/24 06:47:12;;;;;;;2.77;2.42;;;;;;;9.58;37.04;93535.75;1828356;77;21092;-74
2021/04/24 06:49:40;;;;;;;3.37;2.30;;;;;;;9.33;35.98;93526.80;1853155;77;21036;-74
2021/04/24 06:52:07;;;;;;;3.67;2.65;;;;;;;9.37;38.10;93527.00;1852155;77;21543;-74
2021/04/24 06:54:35;;;;;;;2.58;2.37;;;;;;;9.47;36.66;93525.45;1851717;77;21116;-75
2021/04/24 06:57:05;;;;;;;3.98;2.12;;;;;;;9.34;36.15;93525.05;1850921;77;21179;-74
2021/04/24 06:59:33;;;;;;;3.42;2.10;;;;;;;9.25;37.61;93527.34;1849999;77;21159;-73
2021/04/24 07:02:01;;;;;;;;;;;;;;;;;;;;;
2021/04/24 07:04:30;;;;;;;4.97;1.72;;;;;;;9.78;37.74;93525.88;1850476;77;21347;-76
2021/04/24 07:06:58;;;;;;;2.70;1.72;;;;;;;9.95;37.18;93516.39;1850537;77;21515;-75
2021/04/24 07:09:25;;;;;;;2.47;1.52;;;;;;;10.05;35.99;93516.20;1807706;77;21159;-75
2021/04/24 07:11:53;;;;;;;4.08;1.60;;;;;;;10.10;35.84;93520.46;1791436;78;21044;-75
2021/04/24 07:14:21;;;;;;;2.65;1.95;;;;;;;10.26;37.63;93525.52;1827802;77;21318;-76
2021/04/24 07:16:49;;;;;;;2.05;1.77;;;;;;;10.26;35.25;93523.58;1854226;76;21746;-76
2021/04/24 07:19:17;;;;;;;3.37;2.00;;;;;;;10.04;35.22;93511.94;1785640;77;21539;-76
2021/04/24 07:21:46;;;;;;;3.45;1.70;;;;;;;9.67;34.50;93517.16;1808045;78;21096;-76
2021/04/24 07:24:13;;;;;;;2.27;1.80;;;;;;;9.22;35.36;93513.20;1836004;77;21128;-77
2021/04/24 07:26:41;;;;;;;1.65;1.30;;;;;;;9.00;37.15;93511.00;1852122;77;21202;-74
2021/04/24 07:29:08;;;;;;;1.70;1.42;;;;;;;8.97;36.82;93515.83;1851788;77;21605;-75
2021/04/24 07:31:35;;;;;;;1.50;1.20;;;;;;;8.86;34.42;93507.65;1778031;77;21148;-75
2021/04/24 07:34:03;;;;;;;4.45;1.60;;;;;;;8.73;36.34;93519.42;1812138;78;21032;-76
2021/04/24 07:36:30;;;;;;;1.82;1.47;;;;;;;8.71;36.59;93516.30;1838618;77;21487;-75
2021/04/24 07:38:57;;;;;;;2.05;1.55;;;;;;;8.66;36.98;93503.12;1852266;77;21135;-77
2021/04/24 07:41:27;;;;;;;2.70;2.20;;;;;;;8.55;35.38;93510.42;1852677;77;21202;-73
2021/04/24 07:43:54;;;;;;;2.50;1.70;;;;;;;8.39;36.59;93515.37;1855840;77;21159;-74
2021/04/24 07:46:21;;;;;;;3.62;1.77;;;;;;;8.17;36.15;93505.73;1787839;77;21041;-76
2021/04/24 07:48:48;;;;;;;4.92;1.72;;;;;;;8.05;36.87;93508.75;1805952;78;21194;-76
2021/04/24 07:51:15;;;;;;;1.87;1.50;;;;;;;8.11;37.23;93502.39;1833332;77;21621;-75
2021/04/24 07:53:43;;;;;;;3.30;1.70;;;;;;;8.27;36.80;93500.96;1851148;77;21833;-75
2021/04/24 07:56:11;;;;;;;2.15;1.47;;;;;;;8.23;37.27;93502.84;1851987;77;21148;-75
2021/04/24 07:58:39;;;;;;;2.15;1.17;;;;;;;8.30;37.38;93499.98;1852231;77;21036;-76
2021/04/24 08:01:06;;;;;;;3.15;1.90;;;;;;;8.58;38.09;93502.89;1852098;77;21099;-76
2021/04/24 08:03:33;;;;;;;1.90;1.40;;;;;;;8.88;35.85;93503.99;1815168;77;21160;-75
2021/04/24 08:06:01;;;;;;;3.77;2.05;;;;;;;8.86;35.55;93497.39;1776776;80;21139;-75
2021/04/24 08:08:29;;;;;;;2.62;1.82;;;;;;;8.85;36.37;93506.11;1777723;80;21483;-76
2021/04/24 08:10:56;;;;;;;1.82;1.22;;;;;;;8.99;37.06;93517.02;1779977;80;21005;-75
2021/04/24 08:13:25;;;;;;;1.87;1.45;;;;;;;9.01;35.54;93508.48;1816534;78;21044;-78
2021/04/24 08:15:52;;;;;;;3.02;1.60;;;;;;;8.99;36.79;93504.80;1796001;78;21018;-74
2021/04/24 08:18:19;;;;;;;2.75;1.70;;;;;;;9.06;36.40;93505.97;1793362;78;22097;-78
2021/04/24 08:20:47;;;;;;;1.90;1.32;;;;;;;9.23;37.40;93507.97;1826060;77;21530;-74
2021/04/24 08:23:14;;;;;;;1.52;1.40;;;;;;;9.38;35.75;93501.41;1850469;77;21171;-75
2021/04/24 08:25:41;;;;;;;4.85;1.60;;;;;;;9.36;35.77;93498.87;1851826;77;21530;-77
2021/04/24 08:28:08;;;;;;;4.65;1.80;;;;;;;9.14;34.40;93496.69;1852075;77;21543;-74
2021/04/24 08:30:36;;;;;;;3.95;1.62;;;;;;;8.85;34.50;93510.17;1818367;77;21762;-77
2021/04/24 08:33:05;;;;;;;1.52;1.42;;;;;;;8.61;35.86;93503.47;1787560;78;21151;-75
2021/04/24 08:35:33;;;;;;;2.45;1.90;;;;;;;8.39;34.67;93509.38;1823168;77;21474;-74
2021/04/24 08:38:00;;;;;;;3.12;1.40;;;;;;;8.16;36.67;93504.73;1852650;77;21566;-74
2021/04/24 08:40:27;;;;;;;2.80;1.65;;;;;;;8.14;37.96;93507.83;1855782;77;21068;-75
2021/04/24 08:42:55;;;;;;;1.37;1.27;;;;;;;8.42;38.28;93501.82;1810165;77;22318;-75
2021/04/24 08:45:24;;;;;;;3.15;1.47;;;;;;;8.83;36.66;93497.56;1791497;78;21498;-77
2021/04/24 08:47:52;;;;;;;3.60;1.70;;;;;;;9.12;36.69;93498.44;1818142;78;21048;-75
2021/04/24 08:50:25;;;;;;;1.57;1.40;;;;;;;9.35;36.59;93500.81;1777801;80;21479;-77
2021/04/24 08:52:53;;;;;;;3.00;1.37;;;;;;;9.44;35.76;93502.59;1819065;78;21123;-76
2021/04/24 08:55:24;;;;;;;1.85;1.42;;;;;;;9.47;35.40;93494.23;1843367;77;21056;-76
2021/04/24 08:57:52;;;;;;;1.75;1.45;;;;;;;9.50;35.99;93490.77;1852087;77;21076;-75
2021/04/24 09:00:27;;;;;;;1.85;1.30;;;;;;;9.59;36.32;93493.09;1852007;77;21554;-75
2021/04/24 09:02:54;;;;;;;;;;;;;;;9.80;34.88;93484.96;1854768;77;21115;-75
2021/04/24 09:05:22;;;;;;;2.10;1.15;;;;;;;9.98;35.70;93498.55;1852462;77;20483;-76
2021/04/24 09:08:03;;;;;;;1.90;1.30;;;;;;;10.19;34.77;93488.22;1788446;77;21379;-75
2021/04/24 09:10:43;;;;;;;4.80;1.67;;;;;;;10.28;34.32;93494.08;1809757;78;21076;-74
2021/04/24 09:13:19;;;;;;;2.55;1.37;;;;;;;10.26;34.69;93488.83;1840643;77;21045;-75
2021/04/24 09:15:47;;;;;;;3.92;1.70;;;;;;;10.19;34.10;93488.22;1851996;77;21112;-77
2021/04/24 09:18:16;;;;;;;2.42;1.55;;;;;;;9.92;35.62;93488.64;1852136;77;21040;-77
2021/04/24 09:20:45;;;;;;;3.27;1.30;;;;;;;9.86;35.36;93479.34;1852218;77;21359;-75
2021/04/24 09:23:17;;;;;;;3.33;1.80;;;;;;;9.92;35.60;93481.08;1861641;77;21064;-76
2021/04/24 09:25:52;;;;;;;2.90;2.05;;;;;;;9.97;36.03;93476.04;1853685;77;21150;-76
2021/04/24 09:28:37;;;;;;;1.98;1.65;;;;;;;9.91;35.29;93476.81;1842782;77;21071;-76
2021/04/24 09:31:22;;;;;;;3.05;2.40;;;;;;;9.79;35.58;93483.42;1851201;77;21114;-76
2021/04/24 09:33:59;;;;;;;2.98;2.45;;;;;;;9.71;36.76;93481.88;1852315;77;21455;-76
2021/04/24 09:36:37;;;;;;;4.50;1.82;;;;;;;9.68;35.60;93479.92;1836524;77;21143;-75
2021/04/24 09:39:08;;;;;;;2.95;1.70;;;;;;;9.59;35.53;93472.73;1782599;78;21567;-79
2021/04/24 09:41:41;;;;;;;2.92;1.50;;;;;;;9.59;36.85;93472.17;1823055;78;21107;-78
2021/04/24 09:44:12;;;;;;;3.20;1.25;;;;;;;9.61;36.89;93467.11;1850496;77;21028;-77
2021/04/24 09:46:53;;;;;;;2.92;1.72;;;;;;;9.61;36.05;93462.27;1851968;77;21181;-77
2021/04/24 09:49:31;;;;;;;3.83;2.22;;;;;;;9.54;35.08;93465.75;1851828;77;21166;-77
2021/04/24 09:52:04;;;;;;;2.85;1.57;;;;;;;9.37;35.75;93467.88;1851492;77;21159;-76
2021/04/24 09:54:43;;;;;;;2.25;1.27;;;;;;;9.22;35.94;93469.80;1833454;77;21005;-75
2021/04/24 09:57:20;;;;;;;4.15;2.00;;;;;;;9.02;35.70;93472.05;1781981;78;21491;-75
2021/04/24 09:59:57;;;;;;;3.12;1.77;;;;;;;8.76;35.64;93477.20;1822840;78;22136;-75
2021/04/24 10:02:33;;;;;;;3.85;1.67;;;;;;;8.57;36.52;93470.73;1779661;80;21519;-76
2021/04/24 10:05:17;;;;;;;3.45;1.95;;;;;;;8.45;37.69;93473.97;1804852;77;21113;-73
2021/04/24 10:07:55;;;;;;;3.02;1.60;;;;;;;8.39;37.68;93467.96;1853416;77;28438;-75
2021/04/24 10:10:34;;;;;;;4.00;1.62;;;;;;;8.34;36.90;93472.34;1797024;78;21491;-73
2021/04/24 10:13:05;;;;;;;3.12;1.75;;;;;;;8.29;37.50;93476.19;1746014;80;22656;-74
2021/04/24 10:15:41;;;;;;;3.15;1.45;;;;;;;8.24;38.02;93473.27;1763766;78;21074;-75
2021/04/24 10:18:11;;;;;;;1.57;1.40;;;;;;;8.21;37.88;93470.53;1779255;79;21485;-78
2021/04/24 10:20:44;;;;;;;4.17;2.35;;;;;;;8.20;38.22;93474.41;1845985;77;20987;-77
2021/04/24 10:23:13;;;;;;;3.75;1.85;;;;;;;8.22;39.16;93473.44;1822522;78;21025;-75
2021/04/24 10:25:40;;;;;;;6.15;2.10;;;;;;;8.25;39.41;93474.81;1849724;77;22226;-78
2021/04/24 10:28:08;;;;;;;6.30;1.70;;;;;;;8.34;38.58;93474.47;1819743;77;21194;-75
2021/04/24 10:30:42;;;;;;;2.70;1.87;;;;;;;8.40;38.92;93467.57;1787425;79;21132;-78
2021/04/24 10:33:10;;;;;;;2.83;1.75;;;;;;;8.44;37.76;93465.65;1809851;77;21127;-75
2021/04/24 10:35:38;;;;;;;6.17;2.20;;;;;;;8.43;37.30;93461.39;1783566;80;21128;-75
2021/04/24 10:38:06;;;;;;;2.27;1.72;;;;;;;8.36;38.12;93464.62;1731742;80;21203;-76
2021/04/24 10:40:46;;;;;;;2.15;1.50;;;;;;;8.33;38.00;93461.31;1749350;80;21207;-75
2021/04/24 10:43:20;;;;;;;3.52;1.62;;;;;;;8.33;38.21;93460.73;1761051;80;21168;-75
2021/04/24 10:45:48;;;;;;;2.20;1.40;;;;;;;8.38;38.50;93472.58;1797486;77;21626;-76
2021/04/24 10:48:23;;;;;;;2.62;1.72;;;;;;;8.46;37.95;93453.86;1813379;77;21191;-76
2021/04/24 10:50:52;;;;;;;4.05;1.85;;;;;;;8.50;36.97;93460.66;1839238;77;21095;-75
2021/04/24 10:53:31;;;;;;;1.98;1.42;;;;;;;8.41;38.06;93463.70;1763098;81;21086;-76
2021/04/24 10:55:59;;;;;;;2.33;1.70;;;;;;;8.34;38.43;93466.34;1779840;80;21212;-75
2021/04/24 10:58:28;;;;;;;3.72;1.55;;;;;;;8.22;38.48;93469.37;1834375;77;21462;-74
2021/04/24 11:01:00;;;;;;;4.55;1.75;;;;;;;8.14;38.71;93464.49;1835790;77;21165;-74
2021/04/24 11:03:41;;;;;;;3.25;1.65;;;;;;;8.08;38.62;93472.77;1828300;77;21615;-77
2021/04/24 11:06:22;;;;;;;17.70;2.95;;;;;;;8.01;38.84;93480.84;1839250;77;21201;-76
2021/04/24 11:08:52;;;;;;;2.83;1.95;;;;;;;7.98;39.18;93474.27;1817684;77;21631;-77
2021/04/24 11:11:22;;;;;;;4.40;1.90;;;;;;;7.97;37.59;93469.21;1842448;77;21171;-76
2021/04/24 11:13:54;;;;;;;2.75;1.67;;;;;;;7.91;39.52;93463.38;1820481;77;21153;-75
2021/04/24 11:16:24;;;;;;;5.42;1.98;;;;;;;7.91;39.96;93459.91;1811615;77;21367;-75
2021/04/24 11:18:52;;;;;;;6.28;1.70;;;;;;;7.91;39.05;93470.16;1835264;76;21073;-77
2021/04/24 11:21:26;;;;;;;1.80;1.70;;;;;;;7.91;39.71;93460.67;1802262;78;21054;-75
2021/04/24 11:24:00;;;;;;;2.87;2.27;;;;;;;7.93;38.68;93471.12;1759427;80;21133;-76
2021/04/24 11:26:37;;;;;;;;;;;;;;;7.89;38.88;93465.68;1824471;78;21530;-75
2021/04/24 11:29:15;;;;;;;2.83;1.80;;;;;;;7.94;40.24;93472.70;1895840;75;21086;-75
2021/04/24 11:31:57;;;;;;;3.35;1.67;;;;;;;7.99;39.72;93462.27;1869476;75;21476;-76
2021/04/24 11:34:48;;;;;;;2.90;1.90;;;;;;;8.03;39.04;93466.36;1854498;77;21612;-75
2021/04/24 11:37:23;;;;;;;6.65;3.37;;;;;;;8.00;36.34;93456.28;1815870;77;21160;-76
2021/04/24 11:40:29;;;;;;;4.37;1.70;;;;;;;7.90;37.96;93463.74;1817773;77;21125;-75
2021/04/24 11:43:08;;;;;;;4.83;2.52;;;;;;;7.88;39.29;93466.06;1855784;77;21166;-77
2021/04/24 11:45:47;;;;;;;2.77;1.70;;;;;;;7.94;40.45;93466.70;1849402;77;21157;-75
2021/04/24 11:48:16;;;;;;;4.05;2.20;;;;;;;7.96;39.84;93465.73;1827373;78;21356;-75
2021/04/24 11:50:44;;;;;;;3.27;1.62;;;;;;;8.08;40.09;93461.16;1827924;78;21063;-74